createdAt,value
2023-01-05T00:00:03.099Z,9.27
2023-01-05T00:05:22.143Z,9.26
2023-01-05T00:08:08.808Z,9.26
2023-01-05T00:14:10.336Z,9.20
2023-01-05T00:17:02.284Z,9.26
2023-01-05T00:19:56.044Z,9.25
2023-01-05T00:22:48.050Z,9.25
2023-01-05T00:28:17.949Z,9.23
2023-01-05T00:30:51.395Z,9.21
2023-01-05T00:39:07.245Z,9.22
2023-01-05T00:42:05.180Z,9.24
2023-01-05T00:44:41.860Z,9.20
2023-01-05T00:47:18.968Z,9.21
2023-01-05T00:50:06.275Z,9.16
2023-01-05T00:52:46.910Z,9.17
2023-01-05T00:55:24.413Z,9.13
2023-01-05T00:58:10.864Z,9.15
2023-01-05T01:00:49.913Z,9.14
2023-01-05T01:03:22.339Z,9.10
2023-01-05T01:14:21.292Z,9.06
2023-01-05T01:16:52.161Z,9.04
2023-01-05T01:19:25.619Z,9.01
2023-01-05T01:24:36.069Z,9.04
2023-01-05T01:29:45.927Z,9.05
2023-01-05T01:32:13.917Z,9.02
2023-01-05T01:34:45.739Z,9.05
2023-01-05T01:37:17.477Z,9.05
2023-01-05T01:39:45.289Z,9.03
2023-01-05T01:42:17.144Z,9.05
2023-01-05T01:45:00.164Z,9.03
2023-01-05T01:47:40.644Z,9.02
2023-01-05T01:53:24.021Z,9.00
2023-01-05T01:56:02.575Z,8.96
2023-01-05T01:58:39.094Z,8.95
2023-01-05T02:01:06.882Z,8.84
2023-01-05T02:06:19.805Z,8.86
2023-01-05T02:08:50.588Z,8.89
2023-01-05T02:17:22.861Z,8.76
2023-01-05T02:22:39.031Z,8.70
2023-01-05T02:25:18.471Z,8.67
2023-01-05T02:28:01.244Z,8.62
2023-01-05T02:30:38.802Z,8.59
2023-01-05T02:33:24.936Z,8.56
2023-01-05T02:36:08.722Z,8.56
2023-01-05T02:38:44.786Z,8.50
2023-01-05T02:41:24.004Z,8.48
2023-01-05T02:43:58.901Z,8.48
2023-01-05T02:46:26.763Z,8.43
2023-01-05T02:49:02.854Z,8.43
2023-01-05T02:51:37.221Z,8.46
2023-01-05T02:54:24.652Z,8.41
2023-01-05T03:29:34.827Z,8.27
2023-01-05T03:33:00.284Z,8.25
2023-01-05T03:35:36.607Z,8.21
2023-01-05T03:41:11.052Z,8.19
2023-01-05T03:43:39.122Z,8.17
2023-01-05T03:46:32.970Z,8.16
2023-01-05T03:49:00.935Z,8.07
2023-01-05T03:54:13.796Z,8.00
2023-01-05T04:10:31.878Z,7.72
2023-01-05T04:12:59.605Z,7.68
2023-01-05T04:15:35.985Z,7.68
2023-01-05T04:18:06.835Z,7.62
2023-01-05T05:07:18.270Z,7.28
2023-01-05T05:20:53.654Z,7.29
2023-01-05T05:28:54.506Z,7.34
2023-01-05T05:56:11.416Z,7.34
2023-01-05T05:58:38.473Z,7.36
2023-01-05T06:06:23.114Z,7.32
2023-01-05T06:31:34.869Z,7.33
2023-01-05T06:39:59.187Z,7.37
2023-01-05T06:42:36.555Z,7.40
2023-01-05T06:45:04.099Z,7.40
2023-01-05T06:50:32.206Z,7.42
2023-01-05T06:52:59.753Z,7.41
2023-01-05T06:55:26.535Z,7.43
2023-01-05T06:57:57.194Z,7.39
2023-01-05T07:00:27.719Z,7.40
2023-01-05T07:02:54.456Z,7.37
2023-01-05T07:05:23.346Z,7.41
2023-01-05T07:07:50.903Z,7.39
2023-01-05T07:10:17.605Z,7.46
2023-01-05T07:12:44.389Z,7.47
2023-01-05T07:15:11.310Z,7.45
2023-01-05T07:17:38.128Z,7.44
2023-01-05T07:20:06.579Z,7.44
2023-01-05T07:22:33.351Z,7.50
2023-01-05T07:25:00.208Z,7.48
2023-01-05T07:27:27.038Z,7.48
2023-01-05T07:29:53.653Z,7.51
2023-01-05T07:32:20.391Z,7.46
2023-01-05T07:34:54.924Z,7.48
2023-01-05T07:37:25.006Z,7.48
2023-01-05T07:39:52.689Z,7.41
2023-01-05T07:42:19.775Z,7.47
2023-01-05T07:44:46.539Z,7.40
2023-01-05T07:47:13.247Z,7.44
2023-01-05T07:49:39.914Z,7.42
2023-01-05T07:52:06.697Z,7.41
2023-01-05T07:54:33.341Z,7.50
2023-01-05T07:57:00.184Z,7.44
2023-01-05T07:59:26.788Z,7.49
2023-01-05T08:01:53.628Z,7.49
2023-01-05T08:04:20.840Z,7.46
2023-01-05T08:06:47.791Z,7.46
2023-01-05T08:09:33.075Z,7.40
2023-01-05T08:12:00.112Z,7.46
2023-01-05T08:14:26.855Z,7.49
2023-01-05T08:16:53.622Z,7.48
2023-01-05T08:19:20.452Z,7.48
2023-01-05T08:21:47.155Z,7.47
2023-01-05T08:24:14.390Z,7.50
2023-01-05T08:26:41.401Z,7.56
2023-01-05T08:29:08.444Z,7.54
2023-01-05T08:31:37.796Z,7.49
2023-01-05T08:34:05.675Z,7.43
2023-01-05T08:36:33.450Z,7.46
2023-01-05T08:39:01.845Z,7.44
2023-01-05T08:41:31.804Z,7.47
2023-01-05T08:44:01.220Z,7.46
2023-01-05T08:46:30.413Z,7.50
2023-01-05T08:48:58.724Z,7.47
2023-01-05T08:51:25.477Z,7.38
2023-01-05T08:53:52.429Z,7.39
2023-01-05T08:56:19.462Z,7.33
2023-01-05T08:58:46.453Z,7.30
2023-01-05T09:01:16.015Z,7.26
2023-01-05T09:03:43.131Z,7.32
2023-01-05T09:06:13.077Z,7.30
2023-01-05T09:08:41.991Z,7.31
2023-01-05T09:11:09.216Z,7.31
2023-01-05T09:13:36.657Z,7.35
2023-01-05T09:16:09.122Z,7.35
2023-01-05T09:18:37.102Z,7.25
2023-01-05T09:21:04.461Z,7.27
2023-01-05T09:23:31.194Z,7.38
2023-01-05T09:25:58.089Z,7.33
2023-01-05T09:28:25.047Z,7.35
2023-01-05T09:30:51.833Z,7.27
2023-01-05T09:33:18.952Z,7.32
2023-01-05T09:35:56.903Z,7.36
2023-01-05T09:38:24.435Z,7.37
2023-01-05T09:40:55.459Z,7.41
2023-01-05T09:43:29.784Z,7.36
2023-01-05T09:45:57.755Z,7.33
2023-01-05T09:48:26.177Z,7.33
2023-01-05T09:50:53.363Z,7.46
2023-01-05T09:53:28.667Z,7.50
2023-01-05T09:55:56.101Z,7.39
2023-01-05T09:58:29.994Z,7.36
2023-01-05T10:01:16.118Z,7.57
2023-01-05T10:04:15.183Z,7.50
2023-01-05T10:06:45.679Z,7.55
2023-01-05T10:09:22.633Z,7.49
2023-01-05T10:12:28.514Z,7.49
2023-01-05T10:15:05.760Z,7.49
2023-01-05T10:17:44.257Z,7.43
2023-01-05T10:20:15.313Z,7.57
2023-01-05T10:23:01.994Z,7.62
2023-01-05T10:25:33.790Z,7.58
2023-01-05T10:28:00.509Z,7.45
2023-01-05T10:30:44.169Z,7.52
2023-01-05T10:33:40.232Z,7.43
2023-01-05T10:37:06.657Z,7.52
2023-01-05T10:39:52.542Z,7.54
2023-01-05T10:42:45.725Z,7.45
2023-01-05T10:45:16.004Z,7.49
2023-01-05T10:47:45.444Z,7.37
2023-01-05T10:50:29.090Z,7.54
2023-01-05T10:52:57.098Z,7.44
2023-01-05T10:55:29.380Z,7.42
2023-01-05T10:57:56.144Z,7.59
2023-01-05T11:00:41.125Z,7.49
2023-01-05T11:03:18.020Z,7.56
2023-01-05T11:05:47.834Z,7.56
2023-01-05T11:08:20.261Z,7.55
2023-01-05T11:10:57.251Z,7.63
2023-01-05T11:13:43.023Z,7.64
2023-01-05T11:16:15.016Z,7.69
2023-01-05T11:18:51.192Z,7.72
2023-01-05T11:21:27.016Z,7.57
2023-01-05T11:23:56.809Z,7.72
2023-01-05T11:26:23.669Z,7.77
2023-01-05T11:29:08.803Z,7.76
2023-01-05T11:32:02.666Z,7.81
2023-01-05T11:34:46.230Z,7.75
2023-01-05T11:37:13.378Z,7.65
2023-01-05T11:39:51.821Z,7.82
2023-01-05T11:42:24.993Z,7.89
2023-01-05T11:44:57.377Z,7.80
2023-01-05T11:47:43.547Z,7.78
2023-01-05T11:50:14.295Z,7.94
2023-01-05T11:52:43.861Z,7.74
2023-01-05T11:55:41.503Z,7.82
2023-01-05T11:58:19.273Z,7.87
2023-01-05T12:00:51.863Z,7.91
2023-01-05T12:03:37.024Z,7.93
2023-01-05T12:06:30.309Z,7.87
2023-01-05T12:09:03.093Z,7.86
2023-01-05T12:11:37.899Z,7.83
2023-01-05T12:14:19.758Z,7.84
2023-01-05T12:16:53.950Z,7.83
2023-01-05T12:19:52.561Z,7.77
2023-01-05T12:22:35.866Z,7.82
2023-01-05T12:25:28.680Z,7.85
2023-01-05T12:28:23.741Z,7.73
2023-01-05T12:34:23.452Z,7.86
2023-01-05T12:37:09.054Z,7.79
2023-01-05T12:40:06.591Z,7.84
2023-01-05T12:46:02.493Z,7.90
2023-01-05T12:48:33.533Z,7.89
2023-01-05T12:51:08.899Z,7.85
2023-01-05T12:53:40.994Z,7.90
2023-01-05T12:56:30.312Z,7.73
2023-01-05T12:59:18.894Z,7.81
2023-01-05T13:02:02.106Z,7.85
2023-01-05T13:04:56.989Z,7.88
2023-01-05T13:07:30.449Z,8.00
2023-01-05T13:10:12.777Z,7.96
2023-01-05T13:12:40.595Z,7.96
2023-01-05T13:15:52.595Z,8.05
2023-01-05T13:18:21.193Z,7.96
2023-01-05T13:20:55.800Z,7.96
2023-01-05T13:23:37.289Z,7.91
2023-01-05T13:26:17.655Z,7.86
2023-01-05T13:28:48.618Z,7.98
2023-01-05T13:31:46.562Z,8.14
2023-01-05T13:34:34.604Z,7.99
2023-01-05T13:37:46.195Z,7.98
2023-01-05T13:40:25.136Z,8.11
2023-01-05T15:26:02.528Z,7.29
2023-01-05T15:29:00.863Z,7.31
2023-01-05T15:31:53.495Z,7.33
2023-01-05T15:34:42.192Z,7.35
2023-01-05T15:37:22.487Z,7.41
2023-01-05T15:39:50.928Z,7.54
2023-01-05T15:42:25.153Z,7.50
2023-01-05T15:44:54.378Z,7.52
2023-01-05T15:47:24.010Z,7.48
2023-01-05T15:49:55.266Z,7.47
2023-01-05T15:52:34.429Z,7.52
2023-01-05T15:55:02.946Z,7.48
2023-01-05T15:57:30.537Z,7.55
2023-01-05T15:59:57.291Z,7.62
2023-01-05T16:02:30.557Z,7.63
2023-01-05T16:05:11.786Z,7.68
2023-01-05T16:08:04.458Z,7.72
2023-01-05T16:11:01.325Z,7.77
2023-01-05T16:13:38.075Z,7.81
2023-01-05T16:19:43.867Z,7.72
2023-01-05T16:22:37.814Z,7.75
2023-01-05T16:25:24.135Z,7.73
2023-01-05T16:27:59.138Z,7.72
2023-01-05T16:30:38.095Z,7.79
2023-01-05T19:49:27.807Z,6.03
2023-01-05T19:54:48.856Z,6.05
2023-01-05T19:57:20.262Z,6.05
2023-01-05T19:59:51.612Z,6.09
2023-01-05T20:05:13.161Z,6.20
2023-01-05T20:10:25.953Z,6.26
2023-01-05T20:12:58.805Z,6.28
2023-01-05T20:15:29.145Z,6.31
2023-01-05T20:23:26.064Z,6.28
2023-01-05T20:25:54.297Z,6.29
2023-01-05T20:28:41.215Z,6.27
2023-01-05T20:31:26.940Z,6.29
2023-01-05T20:36:58.616Z,6.33
2023-01-05T20:42:20.710Z,6.38
2023-01-05T20:47:43.206Z,6.36
2023-01-05T20:50:14.996Z,6.36
2023-01-05T20:52:46.455Z,6.40
2023-01-05T20:55:19.059Z,6.48
2023-01-05T20:57:46.951Z,6.46
2023-01-05T21:00:17.977Z,6.49
2023-01-05T21:02:49.935Z,6.51
2023-01-05T21:05:17.611Z,6.52
2023-01-05T21:07:45.728Z,6.53
2023-01-05T21:10:13.288Z,6.56
2023-01-05T21:12:47.197Z,6.56
2023-01-05T21:15:14.548Z,6.64
2023-01-05T21:17:42.795Z,6.68
2023-01-05T21:20:17.267Z,6.65
2023-01-05T21:22:45.492Z,6.64
2023-01-05T21:25:24.852Z,6.64
2023-01-05T21:27:56.344Z,6.68
2023-01-05T21:33:30.424Z,6.76
2023-01-05T21:36:00.860Z,6.85
2023-01-05T21:39:01.648Z,6.81
2023-01-05T21:41:14.826Z,6.80
2023-01-05T21:43:45.145Z,6.81
2023-01-05T21:46:12.868Z,6.78
2023-01-05T21:48:45.200Z,6.77
2023-01-05T21:51:31.121Z,6.83
2023-01-05T21:54:27.376Z,6.82
2023-01-05T21:56:56.337Z,6.91
2023-01-05T21:59:29.434Z,6.97
2023-01-05T22:01:57.581Z,6.95
2023-01-05T22:04:29.013Z,6.98
2023-01-05T22:07:00.368Z,6.98
2023-01-05T22:09:27.350Z,6.97
2023-01-05T22:11:56.907Z,7.05
2023-01-05T22:14:28.036Z,7.08
2023-01-05T22:16:55.102Z,7.10
2023-01-05T22:19:23.620Z,7.14
2023-01-05T22:21:51.882Z,7.11
2023-01-05T22:24:20.448Z,7.05
2023-01-05T22:26:48.219Z,7.07
2023-01-05T22:29:17.069Z,7.14
2023-01-05T22:31:46.473Z,7.12
2023-01-05T22:34:17.981Z,7.08
2023-01-05T22:36:48.039Z,7.08
2023-01-05T22:39:21.626Z,7.06
2023-01-05T22:41:53.233Z,7.12
2023-01-05T22:44:24.062Z,7.17
2023-01-05T22:46:57.976Z,7.17
2023-01-05T22:49:30.381Z,7.16
2023-01-05T22:51:57.910Z,7.20
2023-01-05T22:54:24.872Z,7.21
2023-01-05T22:56:55.879Z,7.23
2023-01-05T22:59:29.070Z,7.28
2023-01-05T23:02:04.682Z,7.24
2023-01-05T23:04:31.907Z,7.24
2023-01-05T23:07:04.562Z,7.25
2023-01-05T23:09:35.867Z,7.34
2023-01-05T23:12:05.702Z,7.33
2023-01-05T23:14:32.787Z,7.32
2023-01-05T23:17:05.019Z,7.24
2023-01-05T23:19:34.549Z,7.31
2023-01-05T23:22:01.534Z,7.28
2023-01-05T23:24:31.545Z,7.27
2023-01-05T23:26:58.454Z,7.31
2023-01-05T23:29:29.890Z,7.31
2023-01-05T23:32:01.005Z,7.47
2023-01-05T23:34:33.451Z,7.37
2023-01-05T23:37:03.862Z,7.39
2023-01-05T23:39:38.478Z,7.37
2023-01-05T23:42:06.493Z,7.35
2023-01-05T23:44:33.341Z,7.38
2023-01-05T23:47:04.561Z,7.47
2023-01-05T23:49:34.496Z,7.48
2023-01-05T23:52:01.726Z,7.39
2023-01-05T23:54:28.569Z,7.43
2023-01-05T23:57:01.930Z,7.41
2023-01-05T23:59:29.282Z,7.43
